sensor_id;sensor_type;location;lat;lon;timestamp;temperature;humidity
17442;DHT22;8838;50.144;8.176;2022-11-04T00:00:18;9.70;99.90
17442;DHT22;8838;50.144;8.176;2022-11-04T00:02:48;9.80;99.90
17442;DHT22;8838;50.144;8.176;2022-11-04T00:05:15;9.80;99.90
17442;DHT22;8838;50.144;8.176;2022-11-04T00:07:42;9.80;99.90
17442;DHT22;8838;50.144;8.176;2022-11-04T00:10:27;9.90;99.90
17442;DHT22;8838;50.144;8.176;2022-11-04T00:13:08;9.90;99.90
17442;DHT22;8838;50.144;8.176;2022-11-04T00:15:35;9.90;99.90
17442;DHT22;8838;50.144;8.176;2022-11-04T00:18:19;10.00;99.90
17442;DHT22;8838;50.144;8.176;2022-11-04T00:20:46;10.00;99.90
17442;DHT22;8838;50.144;8.176;2022-11-04T00:23:30;9.90;99.90
17442;DHT22;8838;50.144;8.176;2022-11-04T00:26:15;9.90;99.90
17442;DHT22;8838;50.144;8.176;2022-11-04T00:29:00;9.90;99.90
17442;DHT22;8838;50.144;8.176;2022-11-04T00:31:26;10.00;99.90
17442;DHT22;8838;50.144;8.176;2022-11-04T00:34:11;9.90;99.90
17442;DHT22;8838;50.144;8.176;2022-11-04T00:36:37;9.90;99.90
17442;DHT22;8838;50.144;8.176;2022-11-04T00:39:04;9.90;99.90
17442;DHT22;8838;50.144;8.176;2022-11-04T00:41:32;9.90;99.90
17442;DHT22;8838;50.144;8.176;2022-11-04T00:44:00;9.90;99.90
17442;DHT22;8838;50.144;8.176;2022-11-04T00:46:29;9.90;99.90
17442;DHT22;8838;50.144;8.176;2022-11-04T00:48:56;9.80;99.90
17442;DHT22;8838;50.144;8.176;2022-11-04T00:51:24;9.80;99.90
17442;DHT22;8838;50.144;8.176;2022-11-04T00:53:51;9.90;99.90
17442;DHT22;8838;50.144;8.176;2022-11-04T00:56:18;9.90;99.90
17442;DHT22;8838;50.144;8.176;2022-11-04T00:58:46;9.80;99.90
17442;DHT22;8838;50.144;8.176;2022-11-04T01:01:15;9.80;99.90
17442;DHT22;8838;50.144;8.176;2022-11-04T01:03:43;9.70;99.90
17442;DHT22;8838;50.144;8.176;2022-11-04T01:06:10;9.70;99.90
17442;DHT22;8838;50.144;8.176;2022-11-04T01:08:37;9.70;99.90
17442;DHT22;8838;50.144;8.176;2022-11-04T01:11:05;9.80;99.90
17442;DHT22;8838;50.144;8.176;2022-11-04T01:13:32;9.80;99.90
17442;DHT22;8838;50.144;8.176;2022-11-04T01:16:05;9.80;99.90
17442;DHT22;8838;50.144;8.176;2022-11-04T01:18:33;9.80;99.90
17442;DHT22;8838;50.144;8.176;2022-11-04T01:21:00;9.80;99.90
17442;DHT22;8838;50.144;8.176;2022-11-04T01:23:27;9.80;99.90
17442;DHT22;8838;50.144;8.176;2022-11-04T01:25:54;9.80;99.90
17442;DHT22;8838;50.144;8.176;2022-11-04T01:28:21;9.70;99.90
17442;DHT22;8838;50.144;8.176;2022-11-04T01:30:48;9.60;99.90
17442;DHT22;8838;50.144;8.176;2022-11-04T01:33:16;9.70;99.90
17442;DHT22;8838;50.144;8.176;2022-11-04T01:35:43;9.60;99.90
17442;DHT22;8838;50.144;8.176;2022-11-04T01:38:10;9.60;99.90
17442;DHT22;8838;50.144;8.176;2022-11-04T01:40:38;9.60;99.90
17442;DHT22;8838;50.144;8.176;2022-11-04T01:43:11;9.60;99.90
17442;DHT22;8838;50.144;8.176;2022-11-04T01:45:41;9.60;99.90
17442;DHT22;8838;50.144;8.176;2022-11-04T01:48:13;9.50;99.90
17442;DHT22;8838;50.144;8.176;2022-11-04T01:50:44;9.50;99.90
17442;DHT22;8838;50.144;8.176;2022-11-04T01:53:13;9.50;99.90
17442;DHT22;8838;50.144;8.176;2022-11-04T01:55:44;9.50;99.90
17442;DHT22;8838;50.144;8.176;2022-11-04T01:58:15;9.50;99.90
17442;DHT22;8838;50.144;8.176;2022-11-04T02:00:43;9.50;99.90
17442;DHT22;8838;50.144;8.176;2022-11-04T02:03:13;9.50;99.90
17442;DHT22;8838;50.144;8.176;2022-11-04T02:05:42;9.50;99.90
17442;DHT22;8838;50.144;8.176;2022-11-04T02:08:11;9.50;99.90
17442;DHT22;8838;50.144;8.176;2022-11-04T02:10:40;9.40;99.90
17442;DHT22;8838;50.144;8.176;2022-11-04T02:13:07;9.40;99.90
17442;DHT22;8838;50.144;8.176;2022-11-04T02:15:37;9.40;99.90
17442;DHT22;8838;50.144;8.176;2022-11-04T02:18:20;9.40;99.90
17442;DHT22;8838;50.144;8.176;2022-11-04T02:21:11;9.30;99.90
17442;DHT22;8838;50.144;8.176;2022-11-04T02:24:03;9.30;99.90
17442;DHT22;8838;50.144;8.176;2022-11-04T02:27:11;9.30;99.90
17442;DHT22;8838;50.144;8.176;2022-11-04T02:29:51;9.40;99.90
17442;DHT22;8838;50.144;8.176;2022-11-04T02:32:29;9.40;99.90
17442;DHT22;8838;50.144;8.176;2022-11-04T02:35:02;9.40;99.90
17442;DHT22;8838;50.144;8.176;2022-11-04T02:37:39;9.30;99.90
17442;DHT22;8838;50.144;8.176;2022-11-04T02:40:17;9.30;99.90
17442;DHT22;8838;50.144;8.176;2022-11-04T02:42:52;9.30;99.90
17442;DHT22;8838;50.144;8.176;2022-11-04T02:45:25;9.20;99.90
17442;DHT22;8838;50.144;8.176;2022-11-04T02:48:02;9.20;99.90
17442;DHT22;8838;50.144;8.176;2022-11-04T02:50:33;9.10;99.90
17442;DHT22;8838;50.144;8.176;2022-11-04T02:53:06;9.00;99.90
17442;DHT22;8838;50.144;8.176;2022-11-04T02:55:38;9.00;99.90
17442;DHT22;8838;50.144;8.176;2022-11-04T02:58:10;9.10;99.90
17442;DHT22;8838;50.144;8.176;2022-11-04T03:00:41;9.00;99.90
17442;DHT22;8838;50.144;8.176;2022-11-04T03:03:12;8.90;99.90
17442;DHT22;8838;50.144;8.176;2022-11-04T03:05:43;8.90;99.90
17442;DHT22;8838;50.144;8.176;2022-11-04T03:08:16;8.80;99.90
17442;DHT22;8838;50.144;8.176;2022-11-04T03:10:49;8.80;99.90
17442;DHT22;8838;50.144;8.176;2022-11-04T03:13:20;8.80;99.90
17442;DHT22;8838;50.144;8.176;2022-11-04T03:15:51;8.80;99.90
17442;DHT22;8838;50.144;8.176;2022-11-04T03:18:25;8.80;99.90
17442;DHT22;8838;50.144;8.176;2022-11-04T03:20:57;8.80;99.90
17442;DHT22;8838;50.144;8.176;2022-11-04T03:23:26;8.80;99.90
17442;DHT22;8838;50.144;8.176;2022-11-04T03:25:57;8.70;99.90
17442;DHT22;8838;50.144;8.176;2022-11-04T03:28:34;8.60;99.90
17442;DHT22;8838;50.144;8.176;2022-11-04T03:31:11;8.60;99.90
17442;DHT22;8838;50.144;8.176;2022-11-04T03:33:41;8.50;99.90
17442;DHT22;8838;50.144;8.176;2022-11-04T03:36:09;8.50;99.90
17442;DHT22;8838;50.144;8.176;2022-11-04T03:38:37;8.60;99.90
17442;DHT22;8838;50.144;8.176;2022-11-04T03:41:08;8.50;99.90
17442;DHT22;8838;50.144;8.176;2022-11-04T03:43:39;8.50;99.90
17442;DHT22;8838;50.144;8.176;2022-11-04T03:46:08;8.50;99.90
17442;DHT22;8838;50.144;8.176;2022-11-04T03:48:35;8.50;99.90
17442;DHT22;8838;50.144;8.176;2022-11-04T03:51:02;8.40;99.90
17442;DHT22;8838;50.144;8.176;2022-11-04T03:53:29;8.30;99.90
17442;DHT22;8838;50.144;8.176;2022-11-04T03:56:18;8.30;99.90
17442;DHT22;8838;50.144;8.176;2022-11-04T03:58:57;8.20;99.90
17442;DHT22;8838;50.144;8.176;2022-11-04T04:01:36;8.10;99.90
17442;DHT22;8838;50.144;8.176;2022-11-04T04:04:11;8.10;99.90
17442;DHT22;8838;50.144;8.176;2022-11-04T04:06:42;8.10;99.90
17442;DHT22;8838;50.144;8.176;2022-11-04T04:09:17;8.10;99.90
17442;DHT22;8838;50.144;8.176;2022-11-04T04:11:49;8.10;99.90
17442;DHT22;8838;50.144;8.176;2022-11-04T04:14:21;8.00;99.90
17442;DHT22;8838;50.144;8.176;2022-11-04T04:17:06;8.00;99.90
17442;DHT22;8838;50.144;8.176;2022-11-04T04:19:35;7.90;99.90
17442;DHT22;8838;50.144;8.176;2022-11-04T04:22:08;7.90;99.90
17442;DHT22;8838;50.144;8.176;2022-11-04T04:24:40;7.90;99.90
17442;DHT22;8838;50.144;8.176;2022-11-04T04:27:25;7.80;99.90
17442;DHT22;8838;50.144;8.176;2022-11-04T04:30:02;7.80;99.90
17442;DHT22;8838;50.144;8.176;2022-11-04T04:32:34;7.80;99.90
17442;DHT22;8838;50.144;8.176;2022-11-04T04:35:04;7.80;99.90
17442;DHT22;8838;50.144;8.176;2022-11-04T04:37:49;7.80;99.90
17442;DHT22;8838;50.144;8.176;2022-11-04T04:40:19;7.80;99.90
17442;DHT22;8838;50.144;8.176;2022-11-04T04:43:13;7.70;99.90
17442;DHT22;8838;50.144;8.176;2022-11-04T04:46:00;7.60;99.90
17442;DHT22;8838;50.144;8.176;2022-11-04T04:48:28;7.50;99.90
17442;DHT22;8838;50.144;8.176;2022-11-04T04:50:56;7.50;99.90
17442;DHT22;8838;50.144;8.176;2022-11-04T04:53:26;7.50;99.90
17442;DHT22;8838;50.144;8.176;2022-11-04T04:55:53;7.50;99.90
17442;DHT22;8838;50.144;8.176;2022-11-04T04:58:20;7.50;99.90
17442;DHT22;8838;50.144;8.176;2022-11-04T05:00:47;7.70;99.90
17442;DHT22;8838;50.144;8.176;2022-11-04T05:03:13;7.70;99.90
17442;DHT22;8838;50.144;8.176;2022-11-04T05:05:42;7.70;99.90
17442;DHT22;8838;50.144;8.176;2022-11-04T05:08:08;7.70;99.90
17442;DHT22;8838;50.144;8.176;2022-11-04T05:10:35;7.60;99.90
17442;DHT22;8838;50.144;8.176;2022-11-04T05:13:02;7.60;99.90
17442;DHT22;8838;50.144;8.176;2022-11-04T05:15:46;7.60;99.90
17442;DHT22;8838;50.144;8.176;2022-11-04T05:18:13;7.70;99.90
17442;DHT22;8838;50.144;8.176;2022-11-04T05:20:41;7.80;99.90
17442;DHT22;8838;50.144;8.176;2022-11-04T05:23:08;7.80;99.90
17442;DHT22;8838;50.144;8.176;2022-11-04T05:25:38;7.80;99.90
17442;DHT22;8838;50.144;8.176;2022-11-04T05:28:05;7.80;99.90
17442;DHT22;8838;50.144;8.176;2022-11-04T05:30:32;7.90;99.90
17442;DHT22;8838;50.144;8.176;2022-11-04T05:32:59;7.90;99.90
17442;DHT22;8838;50.144;8.176;2022-11-04T05:35:26;7.90;99.90
17442;DHT22;8838;50.144;8.176;2022-11-04T05:37:55;7.90;99.90
17442;DHT22;8838;50.144;8.176;2022-11-04T05:40:22;7.80;99.90
17442;DHT22;8838;50.144;8.176;2022-11-04T05:42:49;7.90;99.90
17442;DHT22;8838;50.144;8.176;2022-11-04T05:45:16;7.80;99.90
17442;DHT22;8838;50.144;8.176;2022-11-04T05:47:44;7.80;99.90
17442;DHT22;8838;50.144;8.176;2022-11-04T05:50:11;7.80;99.90
17442;DHT22;8838;50.144;8.176;2022-11-04T05:52:37;7.80;99.90
17442;DHT22;8838;50.144;8.176;2022-11-04T05:55:06;7.80;99.90
17442;DHT22;8838;50.144;8.176;2022-11-04T05:57:33;7.80;99.90
17442;DHT22;8838;50.144;8.176;2022-11-04T06:00:03;7.80;99.90
17442;DHT22;8838;50.144;8.176;2022-11-04T06:02:29;7.80;99.90
17442;DHT22;8838;50.144;8.176;2022-11-04T06:04:56;7.70;99.90
17442;DHT22;8838;50.144;8.176;2022-11-04T06:07:23;7.70;99.90
17442;DHT22;8838;50.144;8.176;2022-11-04T06:09:50;7.70;99.90
17442;DHT22;8838;50.144;8.176;2022-11-04T06:12:18;7.70;99.90
17442;DHT22;8838;50.144;8.176;2022-11-04T06:14:50;7.80;99.90
17442;DHT22;8838;50.144;8.176;2022-11-04T06:17:18;7.80;99.90
17442;DHT22;8838;50.144;8.176;2022-11-04T06:19:46;7.80;99.90
17442;DHT22;8838;50.144;8.176;2022-11-04T06:22:14;7.80;99.90
17442;DHT22;8838;50.144;8.176;2022-11-04T06:24:42;7.80;99.90
17442;DHT22;8838;50.144;8.176;2022-11-04T06:27:09;7.70;99.90
17442;DHT22;8838;50.144;8.176;2022-11-04T06:29:38;7.70;99.90
17442;DHT22;8838;50.144;8.176;2022-11-04T06:32:06;7.70;99.90
17442;DHT22;8838;50.144;8.176;2022-11-04T06:34:33;7.60;99.90
17442;DHT22;8838;50.144;8.176;2022-11-04T06:37:00;7.60;99.90
17442;DHT22;8838;50.144;8.176;2022-11-04T06:39:26;7.60;99.90
17442;DHT22;8838;50.144;8.176;2022-11-04T06:41:53;7.50;99.90
17442;DHT22;8838;50.144;8.176;2022-11-04T06:44:20;7.50;99.90
17442;DHT22;8838;50.144;8.176;2022-11-04T06:46:49;7.50;99.90
17442;DHT22;8838;50.144;8.176;2022-11-04T06:49:18;7.50;99.90
17442;DHT22;8838;50.144;8.176;2022-11-04T06:51:46;7.60;99.90
17442;DHT22;8838;50.144;8.176;2022-11-04T06:54:13;7.60;99.90
17442;DHT22;8838;50.144;8.176;2022-11-04T06:56:40;7.60;99.90
17442;DHT22;8838;50.144;8.176;2022-11-04T06:59:13;7.50;99.90
17442;DHT22;8838;50.144;8.176;2022-11-04T07:01:40;7.60;99.90
17442;DHT22;8838;50.144;8.176;2022-11-04T07:04:09;7.70;99.90
17442;DHT22;8838;50.144;8.176;2022-11-04T07:06:36;7.70;99.90
17442;DHT22;8838;50.144;8.176;2022-11-04T07:09:03;7.80;99.90
17442;DHT22;8838;50.144;8.176;2022-11-04T07:11:31;7.90;99.90
17442;DHT22;8838;50.144;8.176;2022-11-04T07:13:58;8.00;99.90
17442;DHT22;8838;50.144;8.176;2022-11-04T07:16:25;8.10;99.90
17442;DHT22;8838;50.144;8.176;2022-11-04T07:18:53;8.10;99.90
17442;DHT22;8838;50.144;8.176;2022-11-04T07:21:21;8.10;99.90
17442;DHT22;8838;50.144;8.176;2022-11-04T07:23:48;8.20;99.90
17442;DHT22;8838;50.144;8.176;2022-11-04T07:26:14;8.20;99.90
17442;DHT22;8838;50.144;8.176;2022-11-04T07:28:41;8.20;99.90
17442;DHT22;8838;50.144;8.176;2022-11-04T07:31:10;8.20;99.90
17442;DHT22;8838;50.144;8.176;2022-11-04T07:33:37;8.20;99.90
17442;DHT22;8838;50.144;8.176;2022-11-04T07:36:04;8.30;99.90
17442;DHT22;8838;50.144;8.176;2022-11-04T07:38:33;8.30;99.90
17442;DHT22;8838;50.144;8.176;2022-11-04T07:40:59;8.30;99.90
17442;DHT22;8838;50.144;8.176;2022-11-04T07:43:27;8.50;99.90
17442;DHT22;8838;50.144;8.176;2022-11-04T07:46:00;8.50;99.90
17442;DHT22;8838;50.144;8.176;2022-11-04T07:48:27;8.50;99.90
17442;DHT22;8838;50.144;8.176;2022-11-04T07:50:56;8.60;99.90
17442;DHT22;8838;50.144;8.176;2022-11-04T07:53:23;8.50;99.90
17442;DHT22;8838;50.144;8.176;2022-11-04T07:55:51;8.50;99.90
17442;DHT22;8838;50.144;8.176;2022-11-04T07:58:18;8.60;99.90
17442;DHT22;8838;50.144;8.176;2022-11-04T08:00:45;8.70;99.90
17442;DHT22;8838;50.144;8.176;2022-11-04T08:03:12;8.60;99.90
17442;DHT22;8838;50.144;8.176;2022-11-04T08:05:40;8.50;99.90
17442;DHT22;8838;50.144;8.176;2022-11-04T08:08:07;8.50;99.90
17442;DHT22;8838;50.144;8.176;2022-11-04T08:10:34;8.60;99.90
17442;DHT22;8838;50.144;8.176;2022-11-04T08:13:02;8.60;99.90
17442;DHT22;8838;50.144;8.176;2022-11-04T08:15:29;8.60;99.90
17442;DHT22;8838;50.144;8.176;2022-11-04T08:17:56;8.60;99.90
17442;DHT22;8838;50.144;8.176;2022-11-04T08:20:22;8.60;99.90
17442;DHT22;8838;50.144;8.176;2022-11-04T08:22:49;8.60;99.90
17442;DHT22;8838;50.144;8.176;2022-11-04T08:25:16;8.70;99.90
17442;DHT22;8838;50.144;8.176;2022-11-04T08:27:43;8.70;99.90
17442;DHT22;8838;50.144;8.176;2022-11-04T08:30:12;8.70;99.90
17442;DHT22;8838;50.144;8.176;2022-11-04T08:32:38;8.70;99.90
17442;DHT22;8838;50.144;8.176;2022-11-04T08:35:06;8.80;99.90
17442;DHT22;8838;50.144;8.176;2022-11-04T08:37:33;8.80;99.90
17442;DHT22;8838;50.144;8.176;2022-11-04T08:40:00;8.80;99.90
17442;DHT22;8838;50.144;8.176;2022-11-04T08:42:27;8.90;99.90
17442;DHT22;8838;50.144;8.176;2022-11-04T08:44:54;8.90;99.90
17442;DHT22;8838;50.144;8.176;2022-11-04T08:47:22;8.80;99.90
17442;DHT22;8838;50.144;8.176;2022-11-04T08:49:49;8.80;99.90
17442;DHT22;8838;50.144;8.176;2022-11-04T08:52:16;8.90;99.90
17442;DHT22;8838;50.144;8.176;2022-11-04T08:54:43;9.00;99.90
17442;DHT22;8838;50.144;8.176;2022-11-04T08:57:10;8.90;99.90
17442;DHT22;8838;50.144;8.176;2022-11-04T08:59:37;8.90;99.90
17442;DHT22;8838;50.144;8.176;2022-11-04T09:02:03;8.90;99.90
17442;DHT22;8838;50.144;8.176;2022-11-04T09:04:32;9.00;99.90
17442;DHT22;8838;50.144;8.176;2022-11-04T09:07:01;9.00;99.90
17442;DHT22;8838;50.144;8.176;2022-11-04T09:09:28;9.00;99.90
17442;DHT22;8838;50.144;8.176;2022-11-04T09:11:55;8.90;99.90
17442;DHT22;8838;50.144;8.176;2022-11-04T09:14:22;9.00;99.90
17442;DHT22;8838;50.144;8.176;2022-11-04T09:16:49;9.10;99.90
17442;DHT22;8838;50.144;8.176;2022-11-04T09:19:15;9.20;99.90
17442;DHT22;8838;50.144;8.176;2022-11-04T09:21:43;9.40;99.90
17442;DHT22;8838;50.144;8.176;2022-11-04T09:24:10;9.60;99.90
17442;DHT22;8838;50.144;8.176;2022-11-04T09:26:38;9.70;99.90
17442;DHT22;8838;50.144;8.176;2022-11-04T09:29:05;9.60;99.90
17442;DHT22;8838;50.144;8.176;2022-11-04T09:31:34;9.50;99.90
17442;DHT22;8838;50.144;8.176;2022-11-04T09:34:03;9.50;99.90
17442;DHT22;8838;50.144;8.176;2022-11-04T09:36:30;9.60;99.90
17442;DHT22;8838;50.144;8.176;2022-11-04T09:38:59;9.70;99.90
17442;DHT22;8838;50.144;8.176;2022-11-04T09:41:50;9.70;99.90
17442;DHT22;8838;50.144;8.176;2022-11-04T09:44:23;9.80;99.90
17442;DHT22;8838;50.144;8.176;2022-11-04T09:46:53;10.00;99.90
17442;DHT22;8838;50.144;8.176;2022-11-04T09:49:21;10.10;99.90
17442;DHT22;8838;50.144;8.176;2022-11-04T09:51:49;10.20;99.90
17442;DHT22;8838;50.144;8.176;2022-11-04T09:54:21;10.40;99.90
17442;DHT22;8838;50.144;8.176;2022-11-04T09:56:50;10.40;99.90
17442;DHT22;8838;50.144;8.176;2022-11-04T09:59:23;10.30;99.90
17442;DHT22;8838;50.144;8.176;2022-11-04T10:02:10;10.30;99.90
17442;DHT22;8838;50.144;8.176;2022-11-04T10:04:50;10.50;99.90
17442;DHT22;8838;50.144;8.176;2022-11-04T10:07:37;10.70;99.90
17442;DHT22;8838;50.144;8.176;2022-11-04T10:10:09;10.80;99.90
17442;DHT22;8838;50.144;8.176;2022-11-04T10:12:50;10.90;99.90
17442;DHT22;8838;50.144;8.176;2022-11-04T10:15:37;10.90;99.90
17442;DHT22;8838;50.144;8.176;2022-11-04T10:18:17;10.90;99.90
17442;DHT22;8838;50.144;8.176;2022-11-04T10:20:57;10.90;99.90
17442;DHT22;8838;50.144;8.176;2022-11-04T10:23:30;10.90;99.90
17442;DHT22;8838;50.144;8.176;2022-11-04T10:26:07;10.90;99.90
17442;DHT22;8838;50.144;8.176;2022-11-04T10:28:40;11.00;99.90
17442;DHT22;8838;50.144;8.176;2022-11-04T10:31:11;11.00;99.90
17442;DHT22;8838;50.144;8.176;2022-11-04T10:33:42;11.00;99.90
17442;DHT22;8838;50.144;8.176;2022-11-04T10:36:10;11.00;99.90
17442;DHT22;8838;50.144;8.176;2022-11-04T10:38:39;10.90;99.90
17442;DHT22;8838;50.144;8.176;2022-11-04T10:41:19;10.80;99.90
17442;DHT22;8838;50.144;8.176;2022-11-04T10:43:48;10.80;99.90
17442;DHT22;8838;50.144;8.176;2022-11-04T10:46:33;10.80;99.90
17442;DHT22;8838;50.144;8.176;2022-11-04T10:49:17;10.80;99.90
17442;DHT22;8838;50.144;8.176;2022-11-04T10:51:50;10.80;99.90
17442;DHT22;8838;50.144;8.176;2022-11-04T10:54:17;10.70;99.90
17442;DHT22;8838;50.144;8.176;2022-11-04T10:56:49;10.70;99.90
17442;DHT22;8838;50.144;8.176;2022-11-04T10:59:21;10.80;99.90
17442;DHT22;8838;50.144;8.176;2022-11-04T11:01:49;10.80;99.90
17442;DHT22;8838;50.144;8.176;2022-11-04T11:04:25;10.90;99.90
17442;DHT22;8838;50.144;8.176;2022-11-04T11:06:53;11.00;99.90
17442;DHT22;8838;50.144;8.176;2022-11-04T11:09:22;11.00;99.90
17442;DHT22;8838;50.144;8.176;2022-11-04T11:11:57;11.10;99.90
17442;DHT22;8838;50.144;8.176;2022-11-04T11:14:34;11.10;99.90
17442;DHT22;8838;50.144;8.176;2022-11-04T11:17:19;11.30;99.90
17442;DHT22;8838;50.144;8.176;2022-11-04T11:19:49;11.10;99.90
17442;DHT22;8838;50.144;8.176;2022-11-04T11:22:34;11.00;99.90
17442;DHT22;8838;50.144;8.176;2022-11-04T11:25:19;11.00;99.90
17442;DHT22;8838;50.144;8.176;2022-11-04T11:27:49;10.90;99.90
17442;DHT22;8838;50.144;8.176;2022-11-04T11:30:25;10.80;99.90
17442;DHT22;8838;50.144;8.176;2022-11-04T11:32:55;10.70;99.90
17442;DHT22;8838;50.144;8.176;2022-11-04T11:35:27;10.70;99.90
17442;DHT22;8838;50.144;8.176;2022-11-04T11:37:56;10.60;99.90
17442;DHT22;8838;50.144;8.176;2022-11-04T11:40:28;10.60;99.90
17442;DHT22;8838;50.144;8.176;2022-11-04T11:43:00;10.60;99.90
17442;DHT22;8838;50.144;8.176;2022-11-04T11:45:28;10.70;99.90
17442;DHT22;8838;50.144;8.176;2022-11-04T11:47:56;10.80;99.90
17442;DHT22;8838;50.144;8.176;2022-11-04T11:50:25;10.80;99.90
17442;DHT22;8838;50.144;8.176;2022-11-04T11:53:14;10.90;99.90
17442;DHT22;8838;50.144;8.176;2022-11-04T11:55:45;10.90;99.90
17442;DHT22;8838;50.144;8.176;2022-11-04T11:58:25;10.80;99.90
17442;DHT22;8838;50.144;8.176;2022-11-04T12:00:59;10.80;99.90
17442;DHT22;8838;50.144;8.176;2022-11-04T12:03:31;11.00;99.90
17442;DHT22;8838;50.144;8.176;2022-11-04T12:06:13;11.00;99.90
17442;DHT22;8838;50.144;8.176;2022-11-04T12:08:59;11.00;99.90
17442;DHT22;8838;50.144;8.176;2022-11-04T12:11:36;11.00;99.90
17442;DHT22;8838;50.144;8.176;2022-11-04T12:14:12;11.10;99.90
17442;DHT22;8838;50.144;8.176;2022-11-04T12:16:48;11.20;99.90
17442;DHT22;8838;50.144;8.176;2022-11-04T12:19:26;11.20;99.90
17442;DHT22;8838;50.144;8.176;2022-11-04T12:21:58;11.30;99.90
17442;DHT22;8838;50.144;8.176;2022-11-04T12:24:33;11.40;99.90
17442;DHT22;8838;50.144;8.176;2022-11-04T12:27:08;11.50;99.90
17442;DHT22;8838;50.144;8.176;2022-11-04T12:29:53;11.60;99.90
17442;DHT22;8838;50.144;8.176;2022-11-04T12:32:31;11.80;99.90
17442;DHT22;8838;50.144;8.176;2022-11-04T12:35:14;12.00;99.90
17442;DHT22;8838;50.144;8.176;2022-11-04T12:37:56;12.10;99.90
17442;DHT22;8838;50.144;8.176;2022-11-04T12:40:27;12.20;99.90
17442;DHT22;8838;50.144;8.176;2022-11-04T12:43:06;12.20;99.90
17442;DHT22;8838;50.144;8.176;2022-11-04T12:45:45;12.20;99.90
17442;DHT22;8838;50.144;8.176;2022-11-04T12:48:26;12.20;99.90
17442;DHT22;8838;50.144;8.176;2022-11-04T12:51:01;12.10;99.90
17442;DHT22;8838;50.144;8.176;2022-11-04T12:53:47;11.80;99.90
17442;DHT22;8838;50.144;8.176;2022-11-04T12:56:19;11.90;99.90
17442;DHT22;8838;50.144;8.176;2022-11-04T13:01:51;11.90;99.90
17442;DHT22;8838;50.144;8.176;2022-11-04T13:04:22;11.90;99.90
17442;DHT22;8838;50.144;8.176;2022-11-04T13:06:53;11.90;99.90
17442;DHT22;8838;50.144;8.176;2022-11-04T13:09:29;11.90;99.90
17442;DHT22;8838;50.144;8.176;2022-11-04T13:12:03;11.80;99.90
17442;DHT22;8838;50.144;8.176;2022-11-04T13:14:36;11.80;99.90
17442;DHT22;8838;50.144;8.176;2022-11-04T13:17:08;11.90;99.90
17442;DHT22;8838;50.144;8.176;2022-11-04T13:19:42;11.90;99.90
17442;DHT22;8838;50.144;8.176;2022-11-04T13:22:12;12.00;99.90
17442;DHT22;8838;50.144;8.176;2022-11-04T13:24:46;12.00;99.90
17442;DHT22;8838;50.144;8.176;2022-11-04T13:27:19;12.00;99.90
17442;DHT22;8838;50.144;8.176;2022-11-04T13:29:48;11.80;99.90
17442;DHT22;8838;50.144;8.176;2022-11-04T13:32:22;11.80;99.90
17442;DHT22;8838;50.144;8.176;2022-11-04T13:34:58;11.90;99.90
17442;DHT22;8838;50.144;8.176;2022-11-04T13:37:29;11.90;99.90
17442;DHT22;8838;50.144;8.176;2022-11-04T13:40:02;11.90;99.90
17442;DHT22;8838;50.144;8.176;2022-11-04T13:42:49;12.00;99.90
17442;DHT22;8838;50.144;8.176;2022-11-04T13:45:19;12.10;99.90
17442;DHT22;8838;50.144;8.176;2022-11-04T13:47:49;12.10;99.90
17442;DHT22;8838;50.144;8.176;2022-11-04T13:50:30;12.10;99.90
17442;DHT22;8838;50.144;8.176;2022-11-04T13:53:00;12.10;99.90
17442;DHT22;8838;50.144;8.176;2022-11-04T13:55:27;12.10;99.90
17442;DHT22;8838;50.144;8.176;2022-11-04T13:57:57;12.10;99.90
17442;DHT22;8838;50.144;8.176;2022-11-04T14:00:26;12.10;99.90
17442;DHT22;8838;50.144;8.176;2022-11-04T14:02:56;12.00;99.90
17442;DHT22;8838;50.144;8.176;2022-11-04T14:06:04;12.00;99.90
17442;DHT22;8838;50.144;8.176;2022-11-04T14:08:32;12.00;99.90
17442;DHT22;8838;50.144;8.176;2022-11-04T14:11:10;12.00;99.90
17442;DHT22;8838;50.144;8.176;2022-11-04T14:14:15;11.90;99.90
17442;DHT22;8838;50.144;8.176;2022-11-04T14:16:43;11.80;99.90
17442;DHT22;8838;50.144;8.176;2022-11-04T14:22:48;11.70;99.90
17442;DHT22;8838;50.144;8.176;2022-11-04T14:25:25;11.60;99.90
17442;DHT22;8838;50.144;8.176;2022-11-04T14:27:53;11.50;99.90
17442;DHT22;8838;50.144;8.176;2022-11-04T14:30:42;11.30;99.90
17442;DHT22;8838;50.144;8.176;2022-11-04T14:33:25;11.10;99.90
17442;DHT22;8838;50.144;8.176;2022-11-04T14:35:56;11.00;99.90
17442;DHT22;8838;50.144;8.176;2022-11-04T14:38:42;11.00;99.90
17442;DHT22;8838;50.144;8.176;2022-11-04T14:41:21;11.10;99.90
17442;DHT22;8838;50.144;8.176;2022-11-04T14:43:48;11.10;99.90
17442;DHT22;8838;50.144;8.176;2022-11-04T14:46:20;11.20;99.90
17442;DHT22;8838;50.144;8.176;2022-11-04T14:48:50;11.10;99.90
17442;DHT22;8838;50.144;8.176;2022-11-04T14:51:22;11.20;99.90
17442;DHT22;8838;50.144;8.176;2022-11-04T14:53:54;11.20;99.90
17442;DHT22;8838;50.144;8.176;2022-11-04T14:56:23;11.30;99.90
17442;DHT22;8838;50.144;8.176;2022-11-04T14:58:54;11.30;99.90
17442;DHT22;8838;50.144;8.176;2022-11-04T15:01:22;11.20;99.90
17442;DHT22;8838;50.144;8.176;2022-11-04T15:03:49;11.00;99.90
17442;DHT22;8838;50.144;8.176;2022-11-04T15:06:24;10.80;99.90
17442;DHT22;8838;50.144;8.176;2022-11-04T15:08:53;10.70;99.90
17442;DHT22;8838;50.144;8.176;2022-11-04T15:11:23;10.70;99.90
17442;DHT22;8838;50.144;8.176;2022-11-04T15:14:16;10.70;99.90
17442;DHT22;8838;50.144;8.176;2022-11-04T15:16:48;10.60;99.90
17442;DHT22;8838;50.144;8.176;2022-11-04T15:19:22;10.60;99.90
17442;DHT22;8838;50.144;8.176;2022-11-04T15:21:50;10.60;99.90
17442;DHT22;8838;50.144;8.176;2022-11-04T15:24:19;10.70;99.90
17442;DHT22;8838;50.144;8.176;2022-11-04T15:26:49;10.70;99.90
17442;DHT22;8838;50.144;8.176;2022-11-04T15:29:20;10.70;99.90
17442;DHT22;8838;50.144;8.176;2022-11-04T15:31:52;10.70;99.90
17442;DHT22;8838;50.144;8.176;2022-11-04T15:34:19;10.70;99.90
17442;DHT22;8838;50.144;8.176;2022-11-04T15:36:48;10.60;99.90
17442;DHT22;8838;50.144;8.176;2022-11-04T15:39:19;10.60;99.90
17442;DHT22;8838;50.144;8.176;2022-11-04T15:41:54;10.60;99.90
17442;DHT22;8838;50.144;8.176;2022-11-04T15:44:45;10.70;99.90
17442;DHT22;8838;50.144;8.176;2022-11-04T15:47:24;10.70;99.90
17442;DHT22;8838;50.144;8.176;2022-11-04T15:49:52;10.80;99.90
17442;DHT22;8838;50.144;8.176;2022-11-04T15:52:28;10.80;99.90
17442;DHT22;8838;50.144;8.176;2022-11-04T15:54:56;10.80;99.90
17442;DHT22;8838;50.144;8.176;2022-11-04T15:57:27;10.80;99.90
17442;DHT22;8838;50.144;8.176;2022-11-04T15:59:58;10.80;99.90
17442;DHT22;8838;50.144;8.176;2022-11-04T16:02:28;10.80;99.90
17442;DHT22;8838;50.144;8.176;2022-11-04T16:05:05;10.80;99.90
17442;DHT22;8838;50.144;8.176;2022-11-04T16:07:35;10.80;99.90
17442;DHT22;8838;50.144;8.176;2022-11-04T16:12:46;10.90;99.90
17442;DHT22;8838;50.144;8.176;2022-11-04T16:15:28;10.90;99.90
17442;DHT22;8838;50.144;8.176;2022-11-04T16:17:56;10.90;99.90
17442;DHT22;8838;50.144;8.176;2022-11-04T16:20:22;10.90;99.90
17442;DHT22;8838;50.144;8.176;2022-11-04T16:22:54;10.80;99.90
17442;DHT22;8838;50.144;8.176;2022-11-04T16:25:22;10.80;99.90
17442;DHT22;8838;50.144;8.176;2022-11-04T16:27:51;10.70;99.90
17442;DHT22;8838;50.144;8.176;2022-11-04T16:30:20;10.60;99.90
17442;DHT22;8838;50.144;8.176;2022-11-04T16:32:49;10.50;99.90